sensor_id;sensor_type;location;lat;lon;timestamp;temperature;humidity
9971;DHT22;5026;51.494;11.974;2023-03-11T00:00:50;2.50;99.90
9971;DHT22;5026;51.494;11.974;2023-03-11T00:03:19;2.50;99.90
9971;DHT22;5026;51.494;11.974;2023-03-11T00:05:48;2.50;99.90
9971;DHT22;5026;51.494;11.974;2023-03-11T00:08:18;2.40;99.90
9971;DHT22;5026;51.494;11.974;2023-03-11T00:10:46;2.40;99.90
9971;DHT22;5026;51.494;11.974;2023-03-11T00:13:15;2.40;99.90
9971;DHT22;5026;51.494;11.974;2023-03-11T00:15:44;2.30;99.90
9971;DHT22;5026;51.494;11.974;2023-03-11T00:18:11;2.40;99.90
9971;DHT22;5026;51.494;11.974;2023-03-11T00:20:43;2.40;99.90
9971;DHT22;5026;51.494;11.974;2023-03-11T00:23:11;2.40;99.90
9971;DHT22;5026;51.494;11.974;2023-03-11T00:25:39;2.30;99.90
9971;DHT22;5026;51.494;11.974;2023-03-11T00:28:08;2.30;99.90
9971;DHT22;5026;51.494;11.974;2023-03-11T00:30:36;2.30;99.90
9971;DHT22;5026;51.494;11.974;2023-03-11T00:33:03;2.30;99.90
9971;DHT22;5026;51.494;11.974;2023-03-11T00:35:32;2.30;99.90
9971;DHT22;5026;51.494;11.974;2023-03-11T00:38:02;2.30;99.90
9971;DHT22;5026;51.494;11.974;2023-03-11T00:40:31;2.30;99.90
9971;DHT22;5026;51.494;11.974;2023-03-11T00:42:58;2.30;99.90
9971;DHT22;5026;51.494;11.974;2023-03-11T00:45:26;2.30;99.90
9971;DHT22;5026;51.494;11.974;2023-03-11T00:47:53;2.30;99.90
9971;DHT22;5026;51.494;11.974;2023-03-11T00:50:23;2.30;99.90
9971;DHT22;5026;51.494;11.974;2023-03-11T00:52:51;2.20;99.90
9971;DHT22;5026;51.494;11.974;2023-03-11T00:55:21;2.10;99.90
9971;DHT22;5026;51.494;11.974;2023-03-11T00:57:51;2.00;99.90
9971;DHT22;5026;51.494;11.974;2023-03-11T01:00:19;2.10;99.90
9971;DHT22;5026;51.494;11.974;2023-03-11T01:02:46;2.00;99.90
9971;DHT22;5026;51.494;11.974;2023-03-11T01:05:14;2.00;99.90
9971;DHT22;5026;51.494;11.974;2023-03-11T01:07:41;2.00;99.90
9971;DHT22;5026;51.494;11.974;2023-03-11T01:10:09;2.10;99.90
9971;DHT22;5026;51.494;11.974;2023-03-11T01:12:37;2.00;99.90
9971;DHT22;5026;51.494;11.974;2023-03-11T01:15:06;0.50;99.90
9971;DHT22;5026;51.494;11.974;2023-03-11T01:17:33;1.90;99.90
9971;DHT22;5026;51.494;11.974;2023-03-11T01:20:00;1.90;99.90
9971;DHT22;5026;51.494;11.974;2023-03-11T01:22:29;2.00;99.90
9971;DHT22;5026;51.494;11.974;2023-03-11T01:24:56;1.90;99.90
9971;DHT22;5026;51.494;11.974;2023-03-11T01:27:23;1.90;99.90
9971;DHT22;5026;51.494;11.974;2023-03-11T01:29:51;1.80;99.90
9971;DHT22;5026;51.494;11.974;2023-03-11T01:32:18;2.30;99.90
9971;DHT22;5026;51.494;11.974;2023-03-11T01:34:45;1.90;99.90
9971;DHT22;5026;51.494;11.974;2023-03-11T01:37:12;1.70;99.90
9971;DHT22;5026;51.494;11.974;2023-03-11T01:39:39;1.60;99.90
9971;DHT22;5026;51.494;11.974;2023-03-11T01:42:06;1.60;99.90
9971;DHT22;5026;51.494;11.974;2023-03-11T01:44:33;1.60;99.90
9971;DHT22;5026;51.494;11.974;2023-03-11T01:47:38;1.70;99.90
9971;DHT22;5026;51.494;11.974;2023-03-11T01:50:09;1.70;99.90
9971;DHT22;5026;51.494;11.974;2023-03-11T01:52:37;1.70;99.90
9971;DHT22;5026;51.494;11.974;2023-03-11T01:55:06;1.70;99.90
9971;DHT22;5026;51.494;11.974;2023-03-11T01:57:33;1.70;99.90
9971;DHT22;5026;51.494;11.974;2023-03-11T02:00:02;1.60;99.90
9971;DHT22;5026;51.494;11.974;2023-03-11T02:02:34;1.60;99.90
9971;DHT22;5026;51.494;11.974;2023-03-11T02:05:04;1.60;99.90
9971;DHT22;5026;51.494;11.974;2023-03-11T02:07:31;1.60;99.90
9971;DHT22;5026;51.494;11.974;2023-03-11T02:09:58;1.60;99.90
9971;DHT22;5026;51.494;11.974;2023-03-11T02:12:28;1.60;99.90
9971;DHT22;5026;51.494;11.974;2023-03-11T02:14:56;1.60;99.90
9971;DHT22;5026;51.494;11.974;2023-03-11T02:17:24;1.60;99.90
9971;DHT22;5026;51.494;11.974;2023-03-11T02:20:07;1.60;99.90
9971;DHT22;5026;51.494;11.974;2023-03-11T02:22:39;1.70;99.90
9971;DHT22;5026;51.494;11.974;2023-03-11T02:25:11;1.70;99.90
9971;DHT22;5026;51.494;11.974;2023-03-11T02:27:46;1.70;99.90
9971;DHT22;5026;51.494;11.974;2023-03-11T02:30:15;1.70;99.90
9971;DHT22;5026;51.494;11.974;2023-03-11T02:32:44;1.70;99.90
9971;DHT22;5026;51.494;11.974;2023-03-11T02:35:13;1.60;99.90
9971;DHT22;5026;51.494;11.974;2023-03-11T02:37:43;1.60;99.90
9971;DHT22;5026;51.494;11.974;2023-03-11T02:40:38;1.60;99.90
9971;DHT22;5026;51.494;11.974;2023-03-11T02:43:09;1.60;99.90
9971;DHT22;5026;51.494;11.974;2023-03-11T02:45:39;1.60;99.90
9971;DHT22;5026;51.494;11.974;2023-03-11T02:48:07;1.60;99.90
9971;DHT22;5026;51.494;11.974;2023-03-11T02:50:36;1.60;99.90
9971;DHT22;5026;51.494;11.974;2023-03-11T02:53:03;1.60;99.90
9971;DHT22;5026;51.494;11.974;2023-03-11T02:55:31;1.60;99.90
9971;DHT22;5026;51.494;11.974;2023-03-11T02:57:58;1.60;99.90
9971;DHT22;5026;51.494;11.974;2023-03-11T03:00:26;1.60;99.90
9971;DHT22;5026;51.494;11.974;2023-03-11T03:02:53;1.60;99.90
9971;DHT22;5026;51.494;11.974;2023-03-11T03:05:21;1.60;99.90
9971;DHT22;5026;51.494;11.974;2023-03-11T03:07:49;1.70;99.90
9971;DHT22;5026;51.494;11.974;2023-03-11T03:10:18;1.70;99.90
9971;DHT22;5026;51.494;11.974;2023-03-11T03:12:45;1.60;99.90
9971;DHT22;5026;51.494;11.974;2023-03-11T03:15:12;1.60;99.90
9971;DHT22;5026;51.494;11.974;2023-03-11T03:17:42;1.60;99.90
9971;DHT22;5026;51.494;11.974;2023-03-11T03:20:10;1.50;99.90
9971;DHT22;5026;51.494;11.974;2023-03-11T03:22:39;1.50;99.90
9971;DHT22;5026;51.494;11.974;2023-03-11T03:25:07;1.50;99.90
9971;DHT22;5026;51.494;11.974;2023-03-11T03:27:35;1.50;99.90
9971;DHT22;5026;51.494;11.974;2023-03-11T03:30:03;1.50;99.90
9971;DHT22;5026;51.494;11.974;2023-03-11T03:32:30;1.50;99.90
9971;DHT22;5026;51.494;11.974;2023-03-11T03:34:59;1.50;99.90
9971;DHT22;5026;51.494;11.974;2023-03-11T03:37:26;2.00;99.90
9971;DHT22;5026;51.494;11.974;2023-03-11T03:39:54;1.40;99.90
9971;DHT22;5026;51.494;11.974;2023-03-11T03:42:21;1.40;99.90
9971;DHT22;5026;51.494;11.974;2023-03-11T03:44:49;1.40;99.90
9971;DHT22;5026;51.494;11.974;2023-03-11T03:47:16;1.50;99.90
9971;DHT22;5026;51.494;11.974;2023-03-11T03:49:43;1.40;99.90
9971;DHT22;5026;51.494;11.974;2023-03-11T03:52:12;1.50;99.90
9971;DHT22;5026;51.494;11.974;2023-03-11T03:54:39;1.40;99.90
9971;DHT22;5026;51.494;11.974;2023-03-11T03:57:06;1.40;99.90
9971;DHT22;5026;51.494;11.974;2023-03-11T03:59:33;1.30;99.90
9971;DHT22;5026;51.494;11.974;2023-03-11T04:02:00;1.40;99.90
9971;DHT22;5026;51.494;11.974;2023-03-11T04:04:27;1.50;99.90
9971;DHT22;5026;51.494;11.974;2023-03-11T04:06:54;1.40;99.90
9971;DHT22;5026;51.494;11.974;2023-03-11T04:09:22;1.40;99.90
9971;DHT22;5026;51.494;11.974;2023-03-11T04:11:49;1.40;99.90
9971;DHT22;5026;51.494;11.974;2023-03-11T04:14:16;1.50;99.90
9971;DHT22;5026;51.494;11.974;2023-03-11T04:16:43;1.50;99.90
9971;DHT22;5026;51.494;11.974;2023-03-11T04:19:11;1.50;99.90
9971;DHT22;5026;51.494;11.974;2023-03-11T04:21:37;1.50;99.90
9971;DHT22;5026;51.494;11.974;2023-03-11T04:24:05;1.60;99.90
9971;DHT22;5026;51.494;11.974;2023-03-11T04:26:33;1.40;99.90
9971;DHT22;5026;51.494;11.974;2023-03-11T04:29:00;1.40;99.90
9971;DHT22;5026;51.494;11.974;2023-03-11T04:31:27;1.50;99.90
9971;DHT22;5026;51.494;11.974;2023-03-11T04:33:54;1.50;99.90
9971;DHT22;5026;51.494;11.974;2023-03-11T04:36:21;1.50;99.90
9971;DHT22;5026;51.494;11.974;2023-03-11T04:38:48;1.50;99.90
9971;DHT22;5026;51.494;11.974;2023-03-11T04:41:15;1.50;99.90
9971;DHT22;5026;51.494;11.974;2023-03-11T04:43:43;1.50;99.90
9971;DHT22;5026;51.494;11.974;2023-03-11T04:46:10;1.50;99.90
9971;DHT22;5026;51.494;11.974;2023-03-11T04:48:37;1.50;99.90
9971;DHT22;5026;51.494;11.974;2023-03-11T04:51:04;1.50;99.90
9971;DHT22;5026;51.494;11.974;2023-03-11T04:53:32;1.50;99.90
9971;DHT22;5026;51.494;11.974;2023-03-11T04:55:59;1.60;99.90
9971;DHT22;5026;51.494;11.974;2023-03-11T04:58:26;1.60;99.90
9971;DHT22;5026;51.494;11.974;2023-03-11T05:00:54;1.60;99.90
9971;DHT22;5026;51.494;11.974;2023-03-11T05:03:22;1.60;99.90
9971;DHT22;5026;51.494;11.974;2023-03-11T05:05:49;1.60;99.90
9971;DHT22;5026;51.494;11.974;2023-03-11T05:08:17;1.60;99.90
9971;DHT22;5026;51.494;11.974;2023-03-11T05:10:44;1.60;99.90
9971;DHT22;5026;51.494;11.974;2023-03-11T05:13:11;1.60;99.90
9971;DHT22;5026;51.494;11.974;2023-03-11T05:15:38;1.70;99.90
9971;DHT22;5026;51.494;11.974;2023-03-11T05:18:07;1.70;99.90
9971;DHT22;5026;51.494;11.974;2023-03-11T05:20:34;1.70;99.90
9971;DHT22;5026;51.494;11.974;2023-03-11T05:23:01;1.60;99.90
9971;DHT22;5026;51.494;11.974;2023-03-11T05:25:28;1.70;99.90
9971;DHT22;5026;51.494;11.974;2023-03-11T05:27:55;2.60;99.90
9971;DHT22;5026;51.494;11.974;2023-03-11T05:30:22;1.70;99.90
9971;DHT22;5026;51.494;11.974;2023-03-11T05:32:49;1.70;99.90
9971;DHT22;5026;51.494;11.974;2023-03-11T05:35:18;1.70;99.90
9971;DHT22;5026;51.494;11.974;2023-03-11T05:37:45;1.70;99.90
9971;DHT22;5026;51.494;11.974;2023-03-11T05:40:15;1.70;99.90
9971;DHT22;5026;51.494;11.974;2023-03-11T05:42:42;1.70;99.90
9971;DHT22;5026;51.494;11.974;2023-03-11T05:45:09;1.70;99.90
9971;DHT22;5026;51.494;11.974;2023-03-11T05:47:36;1.70;99.90
9971;DHT22;5026;51.494;11.974;2023-03-11T05:50:07;1.70;99.90
9971;DHT22;5026;51.494;11.974;2023-03-11T05:52:36;1.80;99.90
9971;DHT22;5026;51.494;11.974;2023-03-11T05:55:03;1.80;99.90
9971;DHT22;5026;51.494;11.974;2023-03-11T05:57:31;1.80;99.90
9971;DHT22;5026;51.494;11.974;2023-03-11T05:59:58;1.80;99.90
9971;DHT22;5026;51.494;11.974;2023-03-11T06:02:24;1.70;99.90
9971;DHT22;5026;51.494;11.974;2023-03-11T06:04:51;1.80;99.90
9971;DHT22;5026;51.494;11.974;2023-03-11T06:07:18;1.70;99.90
9971;DHT22;5026;51.494;11.974;2023-03-11T06:12:54;1.80;99.90
9971;DHT22;5026;51.494;11.974;2023-03-11T06:15:21;1.80;99.90
9971;DHT22;5026;51.494;11.974;2023-03-11T06:17:48;1.70;99.90
9971;DHT22;5026;51.494;11.974;2023-03-11T06:20:15;1.90;99.90
9971;DHT22;5026;51.494;11.974;2023-03-11T06:22:42;1.80;99.90
9971;DHT22;5026;51.494;11.974;2023-03-11T06:25:09;1.80;99.90
9971;DHT22;5026;51.494;11.974;2023-03-11T06:27:37;1.80;99.90
9971;DHT22;5026;51.494;11.974;2023-03-11T06:30:07;1.80;99.90
9971;DHT22;5026;51.494;11.974;2023-03-11T06:32:34;1.70;99.90
9971;DHT22;5026;51.494;11.974;2023-03-11T06:35:01;1.80;99.90
9971;DHT22;5026;51.494;11.974;2023-03-11T06:37:28;1.80;99.90
9971;DHT22;5026;51.494;11.974;2023-03-11T06:39:55;1.90;99.90
9971;DHT22;5026;51.494;11.974;2023-03-11T06:42:22;1.80;99.90
9971;DHT22;5026;51.494;11.974;2023-03-11T06:44:49;1.80;99.90
9971;DHT22;5026;51.494;11.974;2023-03-11T06:47:18;1.90;99.90
9971;DHT22;5026;51.494;11.974;2023-03-11T06:49:44;1.90;99.90
9971;DHT22;5026;51.494;11.974;2023-03-11T06:52:11;1.90;99.90
9971;DHT22;5026;51.494;11.974;2023-03-11T06:54:38;1.90;99.90
9971;DHT22;5026;51.494;11.974;2023-03-11T06:57:06;1.90;99.90
9971;DHT22;5026;51.494;11.974;2023-03-11T06:59:36;3.20;99.90
9971;DHT22;5026;51.494;11.974;2023-03-11T07:02:04;2.00;99.90
9971;DHT22;5026;51.494;11.974;2023-03-11T07:04:32;2.00;99.90
9971;DHT22;5026;51.494;11.974;2023-03-11T07:06:59;2.00;99.90
9971;DHT22;5026;51.494;11.974;2023-03-11T07:09:26;2.00;99.90
9971;DHT22;5026;51.494;11.974;2023-03-11T07:11:54;2.10;99.90
9971;DHT22;5026;51.494;11.974;2023-03-11T07:14:21;2.20;99.90
9971;DHT22;5026;51.494;11.974;2023-03-11T07:16:48;2.30;99.90
9971;DHT22;5026;51.494;11.974;2023-03-11T07:19:15;2.40;99.90
9971;DHT22;5026;51.494;11.974;2023-03-11T07:21:43;2.50;99.90
9971;DHT22;5026;51.494;11.974;2023-03-11T07:24:12;2.60;99.90
9971;DHT22;5026;51.494;11.974;2023-03-11T07:26:39;2.60;99.90
9971;DHT22;5026;51.494;11.974;2023-03-11T07:29:06;2.60;99.90
9971;DHT22;5026;51.494;11.974;2023-03-11T07:31:35;2.60;99.90
9971;DHT22;5026;51.494;11.974;2023-03-11T07:34:04;2.50;99.90
9971;DHT22;5026;51.494;11.974;2023-03-11T07:36:35;2.50;99.90
9971;DHT22;5026;51.494;11.974;2023-03-11T07:39:04;2.40;99.90
9971;DHT22;5026;51.494;11.974;2023-03-11T07:41:33;2.50;99.90
9971;DHT22;5026;51.494;11.974;2023-03-11T07:44:01;2.50;99.90
9971;DHT22;5026;51.494;11.974;2023-03-11T07:46:29;2.60;99.90
9971;DHT22;5026;51.494;11.974;2023-03-11T07:48:56;2.70;99.90
9971;DHT22;5026;51.494;11.974;2023-03-11T07:51:24;3.20;99.90
9971;DHT22;5026;51.494;11.974;2023-03-11T07:53:52;2.90;99.90
9971;DHT22;5026;51.494;11.974;2023-03-11T07:56:22;2.60;99.90
9971;DHT22;5026;51.494;11.974;2023-03-11T07:58:50;2.70;99.90
9971;DHT22;5026;51.494;11.974;2023-03-11T08:01:18;2.80;99.90
9971;DHT22;5026;51.494;11.974;2023-03-11T08:03:47;2.80;99.90
9971;DHT22;5026;51.494;11.974;2023-03-11T08:06:17;3.00;99.90
9971;DHT22;5026;51.494;11.974;2023-03-11T08:08:46;2.90;99.90
9971;DHT22;5026;51.494;11.974;2023-03-11T08:11:14;3.00;99.90
9971;DHT22;5026;51.494;11.974;2023-03-11T08:13:45;3.10;99.90
9971;DHT22;5026;51.494;11.974;2023-03-11T08:16:15;3.40;99.90
9971;DHT22;5026;51.494;11.974;2023-03-11T08:18:43;3.80;99.90
9971;DHT22;5026;51.494;11.974;2023-03-11T08:21:12;4.50;99.90
9971;DHT22;5026;51.494;11.974;2023-03-11T08:23:39;6.60;99.90
9971;DHT22;5026;51.494;11.974;2023-03-11T08:26:10;7.60;97.50
9971;DHT22;5026;51.494;11.974;2023-03-11T08:28:37;8.80;96.00
9971;DHT22;5026;51.494;11.974;2023-03-11T08:31:12;7.70;95.80
9971;DHT22;5026;51.494;11.974;2023-03-11T08:33:40;7.50;96.50
9971;DHT22;5026;51.494;11.974;2023-03-11T08:36:07;7.60;96.50
9971;DHT22;5026;51.494;11.974;2023-03-11T08:38:34;7.40;96.60
9971;DHT22;5026;51.494;11.974;2023-03-11T08:41:01;6.40;96.20
9971;DHT22;5026;51.494;11.974;2023-03-11T08:43:28;5.70;97.00
9971;DHT22;5026;51.494;11.974;2023-03-11T08:45:55;5.50;96.80
9971;DHT22;5026;51.494;11.974;2023-03-11T08:48:23;5.20;97.20
9971;DHT22;5026;51.494;11.974;2023-03-11T08:50:50;5.10;97.30
9971;DHT22;5026;51.494;11.974;2023-03-11T08:53:17;4.90;97.70
9971;DHT22;5026;51.494;11.974;2023-03-11T08:55:44;5.30;97.80
9971;DHT22;5026;51.494;11.974;2023-03-11T08:58:11;4.50;97.90
9971;DHT22;5026;51.494;11.974;2023-03-11T09:00:38;4.30;98.10
9971;DHT22;5026;51.494;11.974;2023-03-11T09:03:05;4.90;98.50
9971;DHT22;5026;51.494;11.974;2023-03-11T09:05:33;5.50;98.20
9971;DHT22;5026;51.494;11.974;2023-03-11T09:08:00;6.00;97.50
9971;DHT22;5026;51.494;11.974;2023-03-11T09:10:28;6.30;97.30
9971;DHT22;5026;51.494;11.974;2023-03-11T09:12:55;6.30;96.70
9971;DHT22;5026;51.494;11.974;2023-03-11T09:15:22;6.30;97.00
9971;DHT22;5026;51.494;11.974;2023-03-11T09:17:49;6.50;97.40
9971;DHT22;5026;51.494;11.974;2023-03-11T09:20:16;6.70;96.80
9971;DHT22;5026;51.494;11.974;2023-03-11T09:22:44;7.10;96.60
9971;DHT22;5026;51.494;11.974;2023-03-11T09:25:12;7.50;96.50
9971;DHT22;5026;51.494;11.974;2023-03-11T09:27:40;7.60;96.10
9971;DHT22;5026;51.494;11.974;2023-03-11T09:30:08;7.50;95.80
9971;DHT22;5026;51.494;11.974;2023-03-11T09:32:35;7.40;95.50
9971;DHT22;5026;51.494;11.974;2023-03-11T09:35:02;7.10;95.20
9971;DHT22;5026;51.494;11.974;2023-03-11T09:37:30;7.20;95.40
9971;DHT22;5026;51.494;11.974;2023-03-11T09:39:58;7.40;95.40
9971;DHT22;5026;51.494;11.974;2023-03-11T09:42:29;7.60;95.20
9971;DHT22;5026;51.494;11.974;2023-03-11T09:45:03;7.60;94.50
9971;DHT22;5026;51.494;11.974;2023-03-11T09:47:38;7.80;94.80
9971;DHT22;5026;51.494;11.974;2023-03-11T09:50:21;8.30;94.20
9971;DHT22;5026;51.494;11.974;2023-03-11T09:52:55;7.40;94.00
9971;DHT22;5026;51.494;11.974;2023-03-11T09:55:32;7.30;94.20
9971;DHT22;5026;51.494;11.974;2023-03-11T09:58:07;6.90;94.70
9971;DHT22;5026;51.494;11.974;2023-03-11T10:00:35;6.80;94.60
9971;DHT22;5026;51.494;11.974;2023-03-11T10:03:06;8.00;95.30
9971;DHT22;5026;51.494;11.974;2023-03-11T10:05:38;6.90;95.00
9971;DHT22;5026;51.494;11.974;2023-03-11T10:08:15;6.80;95.00
9971;DHT22;5026;51.494;11.974;2023-03-11T10:10:50;6.70;94.90
9971;DHT22;5026;51.494;11.974;2023-03-11T10:13:28;6.70;95.10
9971;DHT22;5026;51.494;11.974;2023-03-11T10:16:06;6.70;95.40
9971;DHT22;5026;51.494;11.974;2023-03-11T10:18:48;6.80;95.20
9971;DHT22;5026;51.494;11.974;2023-03-11T10:21:23;6.40;95.60
9971;DHT22;5026;51.494;11.974;2023-03-11T10:24:03;6.30;95.40
9971;DHT22;5026;51.494;11.974;2023-03-11T10:26:41;6.70;95.40
9971;DHT22;5026;51.494;11.974;2023-03-11T10:29:14;6.90;95.40
9971;DHT22;5026;51.494;11.974;2023-03-11T10:31:45;7.10;95.10
9971;DHT22;5026;51.494;11.974;2023-03-11T10:34:17;7.00;94.40
9971;DHT22;5026;51.494;11.974;2023-03-11T10:36:53;6.90;94.50
9971;DHT22;5026;51.494;11.974;2023-03-11T10:39:22;6.60;94.60
9971;DHT22;5026;51.494;11.974;2023-03-11T10:41:53;6.60;95.00
9971;DHT22;5026;51.494;11.974;2023-03-11T10:44:23;6.70;94.80
9971;DHT22;5026;51.494;11.974;2023-03-11T10:46:51;6.80;94.70
9971;DHT22;5026;51.494;11.974;2023-03-11T10:49:18;6.80;94.70
9971;DHT22;5026;51.494;11.974;2023-03-11T10:51:46;6.80;94.50
9971;DHT22;5026;51.494;11.974;2023-03-11T10:54:22;6.80;94.30
9971;DHT22;5026;51.494;11.974;2023-03-11T10:56:54;6.40;94.70
9971;DHT22;5026;51.494;11.974;2023-03-11T10:59:24;6.60;94.80
9971;DHT22;5026;51.494;11.974;2023-03-11T11:01:56;6.90;94.40
9971;DHT22;5026;51.494;11.974;2023-03-11T11:04:29;6.70;94.50
9971;DHT22;5026;51.494;11.974;2023-03-11T11:06:57;6.50;94.10
9971;DHT22;5026;51.494;11.974;2023-03-11T11:09:25;6.30;94.20
9971;DHT22;5026;51.494;11.974;2023-03-11T11:12:08;6.40;94.30
9971;DHT22;5026;51.494;11.974;2023-03-11T11:14:42;6.40;94.40
9971;DHT22;5026;51.494;11.974;2023-03-11T11:17:18;6.30;94.20
9971;DHT22;5026;51.494;11.974;2023-03-11T11:19:51;6.10;93.70
9971;DHT22;5026;51.494;11.974;2023-03-11T11:22:28;6.10;93.80
9971;DHT22;5026;51.494;11.974;2023-03-11T11:25:00;6.00;93.50
9971;DHT22;5026;51.494;11.974;2023-03-11T11:27:32;5.70;93.90
9971;DHT22;5026;51.494;11.974;2023-03-11T11:30:14;5.80;94.60
9971;DHT22;5026;51.494;11.974;2023-03-11T11:32:41;5.80;94.60
9971;DHT22;5026;51.494;11.974;2023-03-11T11:35:11;6.10;94.00
9971;DHT22;5026;51.494;11.974;2023-03-11T11:37:41;6.20;93.20
9971;DHT22;5026;51.494;11.974;2023-03-11T11:40:25;6.30;92.70
9971;DHT22;5026;51.494;11.974;2023-03-11T11:42:56;6.20;92.20
9971;DHT22;5026;51.494;11.974;2023-03-11T11:45:30;6.20;92.60
9971;DHT22;5026;51.494;11.974;2023-03-11T11:48:02;6.30;92.50
9971;DHT22;5026;51.494;11.974;2023-03-11T11:50:33;6.30;92.10
9971;DHT22;5026;51.494;11.974;2023-03-11T11:53:06;6.30;92.10
9971;DHT22;5026;51.494;11.974;2023-03-11T11:55:41;6.40;92.70
9971;DHT22;5026;51.494;11.974;2023-03-11T11:58:10;6.30;92.60
9971;DHT22;5026;51.494;11.974;2023-03-11T12:00:44;5.90;93.20
9971;DHT22;5026;51.494;11.974;2023-03-11T12:03:55;5.70;93.50
9971;DHT22;5026;51.494;11.974;2023-03-11T12:06:30;5.90;94.00
9971;DHT22;5026;51.494;11.974;2023-03-11T12:09:09;6.60;94.20
9971;DHT22;5026;51.494;11.974;2023-03-11T12:11:42;5.80;93.40
9971;DHT22;5026;51.494;11.974;2023-03-11T12:14:18;5.80;93.30
9971;DHT22;5026;51.494;11.974;2023-03-11T12:16:51;6.00;93.40
9971;DHT22;5026;51.494;11.974;2023-03-11T12:19:28;6.20;93.00
9971;DHT22;5026;51.494;11.974;2023-03-11T12:25:00;6.10;93.20
9971;DHT22;5026;51.494;11.974;2023-03-11T12:27:33;6.00;92.90
9971;DHT22;5026;51.494;11.974;2023-03-11T12:30:12;6.00;92.80
9971;DHT22;5026;51.494;11.974;2023-03-11T12:32:43;6.20;93.00
9971;DHT22;5026;51.494;11.974;2023-03-11T12:35:19;6.30;92.60
9971;DHT22;5026;51.494;11.974;2023-03-11T12:37:56;6.20;92.70
9971;DHT22;5026;51.494;11.974;2023-03-11T12:40:48;6.00;92.60
9971;DHT22;5026;51.494;11.974;2023-03-11T12:43:27;5.90;92.90
9971;DHT22;5026;51.494;11.974;2023-03-11T12:46:15;7.20;93.90
9971;DHT22;5026;51.494;11.974;2023-03-11T12:48:44;5.90;93.30
9971;DHT22;5026;51.494;11.974;2023-03-11T12:51:59;6.00;93.00
9971;DHT22;5026;51.494;11.974;2023-03-11T12:54:30;5.80;93.10
9971;DHT22;5026;51.494;11.974;2023-03-11T12:56:59;5.60;93.30
9971;DHT22;5026;51.494;11.974;2023-03-11T12:59:52;5.50;93.50
9971;DHT22;5026;51.494;11.974;2023-03-11T13:05:22;5.40;93.80
9971;DHT22;5026;51.494;11.974;2023-03-11T13:07:58;5.50;93.90
9971;DHT22;5026;51.494;11.974;2023-03-11T13:10:39;5.40;93.90
9971;DHT22;5026;51.494;11.974;2023-03-11T13:13:29;5.40;93.60
9971;DHT22;5026;51.494;11.974;2023-03-11T13:16:37;5.30;93.80
9971;DHT22;5026;51.494;11.974;2023-03-11T13:22:42;5.40;92.80
9971;DHT22;5026;51.494;11.974;2023-03-11T13:25:30;5.60;92.90
9971;DHT22;5026;51.494;11.974;2023-03-11T13:31:11;5.80;92.80
9971;DHT22;5026;51.494;11.974;2023-03-11T13:33:51;5.70;93.10
9971;DHT22;5026;51.494;11.974;2023-03-11T13:36:31;5.50;93.00
9971;DHT22;5026;51.494;11.974;2023-03-11T13:39:12;5.70;93.10
9971;DHT22;5026;51.494;11.974;2023-03-11T13:41:44;5.80;93.10
9971;DHT22;5026;51.494;11.974;2023-03-11T13:44:15;5.90;92.40
9971;DHT22;5026;51.494;11.974;2023-03-11T13:46:48;5.90;91.50
9971;DHT22;5026;51.494;11.974;2023-03-11T13:49:24;5.90;91.70
9971;DHT22;5026;51.494;11.974;2023-03-11T13:51:53;5.80;91.70
9971;DHT22;5026;51.494;11.974;2023-03-11T13:54:33;5.80;91.40
9971;DHT22;5026;51.494;11.974;2023-03-11T13:57:01;5.60;91.40
9971;DHT22;5026;51.494;11.974;2023-03-11T13:59:30;5.60;91.60
9971;DHT22;5026;51.494;11.974;2023-03-11T14:01:59;5.80;91.60
9971;DHT22;5026;51.494;11.974;2023-03-11T14:04:30;5.90;91.20
9971;DHT22;5026;51.494;11.974;2023-03-11T14:06:58;6.00;91.30
9971;DHT22;5026;51.494;11.974;2023-03-11T14:09:26;5.80;91.20
9971;DHT22;5026;51.494;11.974;2023-03-11T14:11:57;5.50;91.30
9971;DHT22;5026;51.494;11.974;2023-03-11T14:14:41;5.10;91.80
9971;DHT22;5026;51.494;11.974;2023-03-11T14:17:12;4.90;91.90
9971;DHT22;5026;51.494;11.974;2023-03-11T14:19:41;4.90;92.20
9971;DHT22;5026;51.494;11.974;2023-03-11T14:22:08;4.70;92.10
9971;DHT22;5026;51.494;11.974;2023-03-11T14:24:37;4.80;92.40
9971;DHT22;5026;51.494;11.974;2023-03-11T14:27:08;4.60;92.30
9971;DHT22;5026;51.494;11.974;2023-03-11T14:29:37;4.50;92.50
9971;DHT22;5026;51.494;11.974;2023-03-11T14:32:25;4.10;92.50
9971;DHT22;5026;51.494;11.974;2023-03-11T14:34:53;4.50;92.90
9971;DHT22;5026;51.494;11.974;2023-03-11T14:37:25;4.50;93.10
9971;DHT22;5026;51.494;11.974;2023-03-11T14:39:52;4.50;93.10
9971;DHT22;5026;51.494;11.974;2023-03-11T14:42:22;4.60;93.30
9971;DHT22;5026;51.494;11.974;2023-03-11T14:44:55;4.70;93.30
9971;DHT22;5026;51.494;11.974;2023-03-11T14:47:32;4.80;93.30
9971;DHT22;5026;51.494;11.974;2023-03-11T14:50:02;4.90;93.30
9971;DHT22;5026;51.494;11.974;2023-03-11T14:52:33;5.00;93.30
9971;DHT22;5026;51.494;11.974;2023-03-11T14:55:04;5.00;93.20
9971;DHT22;5026;51.494;11.974;2023-03-11T14:57:36;5.50;93.30
9971;DHT22;5026;51.494;11.974;2023-03-11T15:00:06;5.00;92.90
9971;DHT22;5026;51.494;11.974;2023-03-11T15:02:44;4.90;92.80
9971;DHT22;5026;51.494;11.974;2023-03-11T15:05:18;4.90;92.90
9971;DHT22;5026;51.494;11.974;2023-03-11T15:07:48;5.00;93.00
9971;DHT22;5026;51.494;11.974;2023-03-11T15:10:17;5.10;93.10
9971;DHT22;5026;51.494;11.974;2023-03-11T15:12:44;5.30;92.60
9971;DHT22;5026;51.494;11.974;2023-03-11T15:15:22;5.40;92.00
9971;DHT22;5026;51.494;11.974;2023-03-11T15:17:53;5.50;92.20
9971;DHT22;5026;51.494;11.974;2023-03-11T15:20:27;5.70;92.10
9971;DHT22;5026;51.494;11.974;2023-03-11T15:22:57;5.80;90.80
9971;DHT22;5026;51.494;11.974;2023-03-11T15:25:26;5.70;90.70
9971;DHT22;5026;51.494;11.974;2023-03-11T15:27:54;5.60;90.90
9971;DHT22;5026;51.494;11.974;2023-03-11T15:30:23;6.90;91.80
9971;DHT22;5026;51.494;11.974;2023-03-11T15:32:51;5.70;91.30
9971;DHT22;5026;51.494;11.974;2023-03-11T15:35:20;5.60;90.80
9971;DHT22;5026;51.494;11.974;2023-03-11T15:37:50;5.60;91.00
9971;DHT22;5026;51.494;11.974;2023-03-11T15:40:20;5.60;91.20
9971;DHT22;5026;51.494;11.974;2023-03-11T15:42:49;5.50;91.20
9971;DHT22;5026;51.494;11.974;2023-03-11T15:45:17;5.50;91.60
9971;DHT22;5026;51.494;11.974;2023-03-11T15:47:45;5.30;91.00
9971;DHT22;5026;51.494;11.974;2023-03-11T15:50:15;5.20;90.90
9971;DHT22;5026;51.494;11.974;2023-03-11T15:52:43;5.20;91.10
9971;DHT22;5026;51.494;11.974;2023-03-11T15:55:12;5.20;90.80
9971;DHT22;5026;51.494;11.974;2023-03-11T15:57:39;5.20;90.00
9971;DHT22;5026;51.494;11.974;2023-03-11T16:00:14;5.00;89.00
9971;DHT22;5026;51.494;11.974;2023-03-11T16:02:42;5.00;88.80
9971;DHT22;5026;51.494;11.974;2023-03-11T16:05:13;4.90;89.10
9971;DHT22;5026;51.494;11.974;2023-03-11T16:07:40;4.70;89.00
9971;DHT22;5026;51.494;11.974;2023-03-11T16:10:09;4.60;89.40
9971;DHT22;5026;51.494;11.974;2023-03-11T16:12:37;4.60;90.00
9971;DHT22;5026;51.494;11.974;2023-03-11T16:15:06;4.50;90.00
9971;DHT22;5026;51.494;11.974;2023-03-11T16:17:33;4.40;89.90
9971;DHT22;5026;51.494;11.974;2023-03-11T16:20:00;5.80;90.70
9971;DHT22;5026;51.494;11.974;2023-03-11T16:22:31;4.30;90.50
9971;DHT22;5026;51.494;11.974;2023-03-11T16:25:01;4.20;90.50
9971;DHT22;5026;51.494;11.974;2023-03-11T16:27:28;4.10;90.70
9971;DHT22;5026;51.494;11.974;2023-03-11T16:29:57;4.00;90.80
9971;DHT22;5026;51.494;11.974;2023-03-11T16:32:24;4.00;90.80
9971;DHT22;5026;51.494;11.974;2023-03-11T16:34:51;3.90;91.00
9971;DHT22;5026;51.494;11.974;2023-03-11T16:37:18;3.80;91.20